datoshorarios_respira

Este recurso contiene el identificador de cada estación RESPIRA y todos sus datos dinámicos para cada hora. No contiene el resto de atributos estáticos.

RESPIRA FIWARE es un dispositivo abierto IoT diseñado para monitorizar temperatura ambiente, humedad relativa y concentraciones de NO2 y de partículas en exteriores. Este dispositivo transmite niveles y concentraciones a una plataforma FIWARE central. Esta plataforma central es en su origen nuestro ecosistema RESPIRA IoT medioambiental desplegado para la provincia de Badajoz. https://panstamp.github.io/respira_fiware/docs/es/INDEX.html

Puede DESCARGAR el recurso de AQUÍ en formato CSV: https://datosabiertos.dip-badajoz.es/datastore/dump/b97deedd-30a7-441f-a45c-c9b44a973d62

Puede DESCARGAR el recurso de AQUÍ en formato Excel-compatible: https://datosabiertos.dip-badajoz.es/datastore/dump/b97deedd-30a7-441f-a45c-c9b44a973d62?bom=true

Puede DESCARGAR el recurso de AQUÍ en formato XML: https://datosabiertos.dip-badajoz.es/datastore/dump/b97deedd-30a7-441f-a45c-c9b44a973d62?format=xml

Embutir

Vista básica que en formato tabla muestra solo parte de los datos estructurados. Para su consulta COMPLETA debe descargarse el recurso

_id recvTime fiwareServicePath entityType entityId TimeInstant TimeInstant_md NO2 NO2_md PM10 PM10_md PM1.0 PM1.0_md PM2.5 PM2.5_md PM4.0 PM4.0_md humidity humidity_md temperature temperature_md typicalSize typicalSize_md
18234 2021-02-27T17:11:22 /envAirQualityRESPIRA3 RESPIRA RESPIRA:RESPIRA_A4CF1272ACE4 2021-02-27T17:11:22 None 0 None 8.54 None 8.07 None 8.54 None 8.54 None 60.37 None 15.6 None 0.57 None
18235 2021-02-27T17:12:01 /envAirQualityRESPIRA3 RESPIRA RESPIRA:RESPIRA_A4CF1275559C 2021-02-27T17:12:00 None 106.95 None 11.2 None 10.59 None 11.2 None 11.2 None 75.72 None 15.7 None 0.6 None
18237 2021-02-27T17:17:17 /envAirQualityRESPIRA3 RESPIRA RESPIRA:RESPIRA_A4CF12755D90 2021-02-27T17:17:17 None 2035.7 None 7.58 None 6.98 None 7.49 None 7.57 None 51.32 None 16.83 None 0.65 None
18238 2021-02-27T17:17:53 /envAirQualityRESPIRA3 RESPIRA RESPIRA:RESPIRA_240AC4A26E00 2021-02-27T17:17:53 None 118.34 None 13.27 None 12.53 None 13.26 None 13.27 None 74.42 None 16.25 None 0.55 None
18242 2021-02-27T17:24:19 /envAirQualityRESPIRA3 RESPIRA RESPIRA:RESPIRA_30AEA4F1B87C 2021-02-27T17:24:19 None 0 None 11.23 None 10.62 None 11.23 None 11.23 None 79.89 None 16.54 None 0.58 None
18243 2021-02-27T17:24:37 /envAirQualityRESPIRA3 RESPIRA RESPIRA:RESPIRA_807D3AF39910 2021-02-27T17:24:37 None 12.34 None 8.95 None 8.46 None 8.95 None 8.95 None 47.15 None 20.86 None 0.6 None
18244 2021-02-27T17:31:13 /envAirQualityRESPIRA3 RESPIRA RESPIRA:RESPIRA_30AEA4F1D164 2021-02-27T17:31:13 None 4.07 None 6.44 None 1.73 None 4.17 None 6.07 None 56.51 None 18.17 None 0.74 None
18245 2021-02-27T17:34:33 /envAirQualityRESPIRA3 RESPIRA RESPIRA:RESPIRA_246F28179F74 2021-02-27T17:34:33 None 22.29 None 4.39 None 4.01 None 4.32 None 4.38 None 42.94 None 22.56 None 0.66 None
18247 2021-02-27T17:51:04 /envAirQualityRESPIRA3 RESPIRA RESPIRA:RESPIRA_A4CF12752890 2021-02-27T17:51:03 None 91.9 None 9.82 None 9.23 None 9.79 None 9.82 None 54.99 None 16.95 None 0.61 None
18250 2021-02-27T17:57:37 /envAirQualityRESPIRA3 RESPIRA RESPIRA:RESPIRA_A4CF12758438 2021-02-27T17:57:37 None 60.2 None 9.27 None 8.51 None 9.14 None 9.24 None 62.67 None 15.33 None 0.66 None
18253 2021-02-27T18:07:59 /envAirQualityRESPIRA3 RESPIRA RESPIRA:RESPIRA_A4CF12750498 2021-02-27T18:07:59 None 1.88 None 12.5 None 11.82 None 12.5 None 12.5 None 55.31 None 17.53 None 0.66 None
18255 2021-02-27T18:11:11 /envAirQualityRESPIRA3 RESPIRA RESPIRA:RESPIRA_807D3AF3AB0C 2021-02-27T18:11:11 None 0 None 11.42 None 10.02 None 11.01 None 11.35 None 100.17 None 16.32 None 0.7 None
18256 2021-02-27T18:11:22 /envAirQualityRESPIRA3 RESPIRA RESPIRA:RESPIRA_A4CF1272ACE4 2021-02-27T18:11:22 None 0 None 8.48 None 7.99 None 8.46 None 8.48 None 58.62 None 14.94 None 0.6 None
18258 2021-02-27T18:12:27 /envAirQualityRESPIRA3 RESPIRA RESPIRA:RESPIRA_807D3AF35A5C 2021-02-27T18:12:27 None 0 None 8.53 None 8.01 None 8.5 None 8.53 None 78.04 None 15.87 None 0.61 None
18260 2021-02-27T18:17:54 /envAirQualityRESPIRA3 RESPIRA RESPIRA:RESPIRA_240AC4A26E00 2021-02-27T18:17:53 None 105.18 None 15.96 None 15.07 None 15.95 None 15.96 None 84.76 None 15.44 None 0.56 None
18264 2021-02-27T18:24:37 /envAirQualityRESPIRA3 RESPIRA RESPIRA:RESPIRA_807D3AF39910 2021-02-27T18:24:37 None 10.46 None 7.95 None 7.52 None 7.95 None 7.95 None 47.16 None 20.68 None 0.65 None
18268 2021-02-27T18:50:57 /envAirQualityRESPIRA3 RESPIRA RESPIRA:RESPIRA_A4CF12755A8C 2021-02-27T18:50:57 None 33.92 None 5.28 None 4.99 None 5.28 None 5.28 None 58.95 None 19.14 None 0.52 None
18270 2021-02-27T18:51:40 /envAirQualityRESPIRA3 RESPIRA RESPIRA:RESPIRA_A4CF127501F8 2021-02-27T18:51:40 None 26.34 None 9.37 None 8.68 None 9.28 None 9.36 None 56.06 None 17.46 None 0.67 None
18272 2021-02-27T18:57:38 /envAirQualityRESPIRA3 RESPIRA RESPIRA:RESPIRA_A4CF12758438 2021-02-27T18:57:37 None 73.37 None 12.9 None 11.95 None 12.77 None 12.88 None 72.99 None 13.25 None 0.65 None
18274 2021-02-27T19:07:44 /envAirQualityRESPIRA3 RESPIRA RESPIRA:RESPIRA_807D3AF398EC 2021-02-27T19:07:43 None 255.92 None 16.61 None 15.7 None 16.61 None 16.61 None 102.72 None 13.53 None 0.6 None
18276 2021-02-27T19:08:57 /envAirQualityRESPIRA3 RESPIRA RESPIRA:RESPIRA_807D3AF39838 2021-02-27T19:08:57 None 0 None 23.21 None 18.93 None 21.64 None 22.95 None 72.75 None 14.64 None 0.73 None
18282 2021-02-27T19:17:54 /envAirQualityRESPIRA3 RESPIRA RESPIRA:RESPIRA_240AC4A26E00 2021-02-27T19:17:54 None 90.12 None 16.75 None 15.81 None 16.73 None 16.74 None 68.2 None 13.9 None 0.57 None
18257 2021-02-27T18:12:01 /envAirQualityRESPIRA3 RESPIRA RESPIRA:RESPIRA_A4CF1275559C 2021-02-27T18:12:01 None 99.43 None 10.11 None 9.53 None 10.1 None 10.11 None 80.06 None 14.58 None 0.65 None
18259 2021-02-27T18:17:18 /envAirQualityRESPIRA3 RESPIRA RESPIRA:RESPIRA_A4CF12755D90 2021-02-27T18:17:18 None 1751.6 None 12.16 None 11.3 None 12.05 None 12.14 None 58.68 None 16.04 None 0.58 None
18261 2021-02-27T18:18:02 /envAirQualityRESPIRA3 RESPIRA RESPIRA:RESPIRA_A4CF1272B60C 2021-02-27T18:18:01 None 124.58 None 12.38 None 10.11 None 11.21 None 11.94 None 61.41 None 15.12 None 0.68 None
18262 2021-02-27T18:21:44 /envAirQualityRESPIRA3 RESPIRA RESPIRA:RESPIRA_A4CF1275659C 2021-02-27T18:21:43 None 25.77 None 5.83 None 5.51 None 5.83 None 5.83 None 52.77 None 20.96 None 0.58 None
18263 2021-02-27T18:24:20 /envAirQualityRESPIRA3 RESPIRA RESPIRA:RESPIRA_30AEA4F1B87C 2021-02-27T18:24:20 None 0 None 12.1 None 11.43 None 12.09 None 12.1 None 84.94 None 15.26 None 0.58 None
18265 2021-02-27T18:26:54 /envAirQualityRESPIRA3 RESPIRA RESPIRA:RESPIRA_807D3AF39F6C 2021-02-27T18:26:54 None 0 None 11.6 None 6.34 None 9.19 None 11.2 None 74.8 None 14.06 None 0.8 None
18266 2021-02-27T18:34:33 /envAirQualityRESPIRA3 RESPIRA RESPIRA:RESPIRA_246F28179F74 2021-02-27T18:34:33 None 22.29 None 4.84 None 4.39 None 4.74 None 4.82 None 42.93 None 22.58 None 0.61 None
18267 2021-02-27T18:38:02 /envAirQualityRESPIRA3 RESPIRA RESPIRA:RESPIRA_30AEA4F1D164 2021-02-27T18:38:01 None 11.6 None 1.42 None 1.34 None 1.42 None 1.42 None 55.77 None 18.44 None 0.43 None
18269 2021-02-27T18:51:04 /envAirQualityRESPIRA3 RESPIRA RESPIRA:RESPIRA_A4CF12752890 2021-02-27T18:51:04 None 86.26 None 10.19 None 9.6 None 10.17 None 10.19 None 57.18 None 16.22 None 0.59 None
18271 2021-02-27T18:56:09 /envAirQualityRESPIRA3 RESPIRA RESPIRA:RESPIRA_240AC4A3EBF8 2021-02-27T18:56:08 None 88.14 None 10.42 None 9.79 None 10.42 None 10.42 None 69.44 None 16.96 None 0.56 None
18273 2021-02-27T19:03:40 /envAirQualityRESPIRA3 RESPIRA RESPIRA:RESPIRA_A4CF12755848 2021-02-27T19:03:40 None 13.81 None 14.28 None 12.97 None 14 None 14.23 None 62.01 None 14.01 None 0.62 None
18275 2021-02-27T19:08:00 /envAirQualityRESPIRA3 RESPIRA RESPIRA:RESPIRA_A4CF12750498 2021-02-27T19:08:00 None 1.88 None 15.67 None 14.32 None 15.41 None 15.63 None 54.54 None 16.93 None 0.7 None
18277 2021-02-27T19:11:11 /envAirQualityRESPIRA3 RESPIRA RESPIRA:RESPIRA_807D3AF3AB0C 2021-02-27T19:11:11 None 0 None 17.09 None 15.59 None 16.79 None 17.04 None 93.29 None 14.82 None 0.64 None
18278 2021-02-27T19:11:22 /envAirQualityRESPIRA3 RESPIRA RESPIRA:RESPIRA_A4CF1272ACE4 2021-02-27T19:11:22 None 0 None 9.61 None 9.07 None 9.6 None 9.61 None 59.34 None 14.35 None 0.58 None
18279 2021-02-27T19:12:01 /envAirQualityRESPIRA3 RESPIRA RESPIRA:RESPIRA_A4CF1275559C 2021-02-27T19:12:01 None 86.26 None 12.84 None 12.07 None 12.8 None 12.83 None 87.77 None 12.54 None 0.64 None
18280 2021-02-27T19:12:28 /envAirQualityRESPIRA3 RESPIRA RESPIRA:RESPIRA_807D3AF35A5C 2021-02-27T19:12:28 None 0 None 7.85 None 7.35 None 7.81 None 7.85 None 81.57 None 14.34 None 0.63 None
18281 2021-02-27T19:17:18 /envAirQualityRESPIRA3 RESPIRA RESPIRA:RESPIRA_A4CF12755D90 2021-02-27T19:17:18 None 1469.39 None 25.16 None 23.79 None 25.16 None 25.16 None 64.58 None 14.99 None 0.58 None
18283 2021-02-27T19:18:02 /envAirQualityRESPIRA3 RESPIRA RESPIRA:RESPIRA_A4CF1272B60C 2021-02-27T19:18:02 None 124.58 None 12.68 None 10.66 None 11.61 None 12.23 None 66.13 None 13.54 None 0.68 None
18289 2021-02-27T19:39:13 /envAirQualityRESPIRA3 RESPIRA RESPIRA:RESPIRA_30AEA4F1D164 2021-02-27T19:39:13 None 51.1 None 0.77 None 0.73 None 0.77 None 0.77 None 56.01 None 18.13 None 0.41 None
18292 2021-02-27T19:51:41 /envAirQualityRESPIRA3 RESPIRA RESPIRA:RESPIRA_A4CF127501F8 2021-02-27T19:51:40 None 41.39 None 10.12 None 9.43 None 10.05 None 10.11 None 58.46 None 16.81 None 0.66 None
18293 2021-02-27T19:56:09 /envAirQualityRESPIRA3 RESPIRA RESPIRA:RESPIRA_240AC4A3EBF8 2021-02-27T19:56:09 None 82.5 None 16.38 None 15.4 None 16.37 None 16.37 None 74.03 None 16.05 None 0.6 None
18299 2021-02-27T20:11:12 /envAirQualityRESPIRA3 RESPIRA RESPIRA:RESPIRA_807D3AF3AB0C 2021-02-27T20:11:11 None 0 None 19.74 None 18.21 None 19.5 None 19.7 None 94.44 None 14.17 None 0.64 None
18284 2021-02-27T19:21:44 /envAirQualityRESPIRA3 RESPIRA RESPIRA:RESPIRA_A4CF1275659C 2021-02-27T19:21:44 None 23.89 None 11.86 None 11.19 None 11.85 None 11.86 None 51.67 None 20.99 None 0.57 None
18285 2021-02-27T19:24:20 /envAirQualityRESPIRA3 RESPIRA RESPIRA:RESPIRA_30AEA4F1B87C 2021-02-27T19:24:20 None 0 None 25.26 None 22.89 None 24.74 None 25.17 None 86.79 None 14.26 None 0.58 None
18286 2021-02-27T19:24:38 /envAirQualityRESPIRA3 RESPIRA RESPIRA:RESPIRA_807D3AF39910 2021-02-27T19:24:38 None 12.34 None 8 None 7.52 None 8 None 8 None 47.46 None 20.5 None 0.59 None
18287 2021-02-27T19:27:46 /envAirQualityRESPIRA3 RESPIRA RESPIRA:RESPIRA_807D3AF39F6C 2021-02-27T19:27:46 None 0 None 21.36 None 16.15 None 19.25 None 21.01 None 8.51 None 10.98 None 0.67 None
18288 2021-02-27T19:34:33 /envAirQualityRESPIRA3 RESPIRA RESPIRA:RESPIRA_246F28179F74 2021-02-27T19:34:33 None 18.53 None 4.72 None 4.31 None 4.64 None 4.7 None 42.98 None 22.62 None 0.64 None
18290 2021-02-27T19:50:58 /envAirQualityRESPIRA3 RESPIRA RESPIRA:RESPIRA_A4CF12755A8C 2021-02-27T19:50:57 None 33.92 None 4.8 None 4.54 None 4.8 None 4.8 None 60.14 None 19.16 None 0.49 None
18291 2021-02-27T19:51:04 /envAirQualityRESPIRA3 RESPIRA RESPIRA:RESPIRA_A4CF12752890 2021-02-27T19:51:04 None 84.38 None 20.01 None 18.77 None 19.94 None 20 None 59.7 None 15.49 None 0.58 None
18294 2021-02-27T19:57:38 /envAirQualityRESPIRA3 RESPIRA RESPIRA:RESPIRA_A4CF12758438 2021-02-27T19:57:38 None 75.26 None 21.19 None 19.77 None 21.05 None 21.17 None 75.24 None 11.92 None 0.67 None
18295 2021-02-27T20:03:40 /envAirQualityRESPIRA3 RESPIRA RESPIRA:RESPIRA_A4CF12755848 2021-02-27T20:03:40 None 13.81 None 15.99 None 14.34 None 15.58 None 15.92 None 63.26 None 13.13 None 0.64 None
18296 2021-02-27T20:07:44 /envAirQualityRESPIRA3 RESPIRA RESPIRA:RESPIRA_807D3AF398EC 2021-02-27T20:07:44 None 220.18 None 11.34 None 10.68 None 11.31 None 11.33 None 100.07 None 13.09 None 0.55 None
18297 2021-02-27T20:08:00 /envAirQualityRESPIRA3 RESPIRA RESPIRA:RESPIRA_A4CF12750498 2021-02-27T20:08:00 None 1.88 None 21.78 None 18.68 None 20.78 None 21.62 None 57.36 None 16.36 None 0.64 None
18298 2021-02-27T20:08:57 /envAirQualityRESPIRA3 RESPIRA RESPIRA:RESPIRA_807D3AF39838 2021-02-27T20:08:57 None 0 None 18.53 None 16.63 None 18.07 None 18.46 None 83.92 None 13.66 None 0.65 None
18300 2021-02-27T20:11:23 /envAirQualityRESPIRA3 RESPIRA RESPIRA:RESPIRA_A4CF1272ACE4 2021-02-27T20:11:22 None 0 None 11.63 None 10.97 None 11.62 None 11.63 None 58.31 None 14.34 None 0.61 None
18303 2021-02-27T20:17:19 /envAirQualityRESPIRA3 RESPIRA RESPIRA:RESPIRA_A4CF12755D90 2021-02-27T20:17:19 None 1358.39 None 16.09 None 15.2 None 16.08 None 16.09 None 67.12 None 14.64 None 0.62 None
18304 2021-02-27T20:17:55 /envAirQualityRESPIRA3 RESPIRA RESPIRA:RESPIRA_240AC4A26E00 2021-02-27T20:17:55 None 76.95 None 15.07 None 14.22 None 15.05 None 15.07 None 24 None 13.11 None 0.6 None
18305 2021-02-27T20:18:02 /envAirQualityRESPIRA3 RESPIRA RESPIRA:RESPIRA_A4CF1272B60C 2021-02-27T20:18:02 None 117.06 None 18.79 None 16.59 None 17.52 None 18.1 None 65.08 None 13.73 None 0.61 None
18308 2021-02-27T20:24:38 /envAirQualityRESPIRA3 RESPIRA RESPIRA:RESPIRA_807D3AF39910 2021-02-27T20:24:38 None 17.99 None 10.73 None 10.14 None 10.73 None 10.73 None 47.73 None 20.36 None 0.59 None
18309 2021-02-27T20:27:47 /envAirQualityRESPIRA3 RESPIRA RESPIRA:RESPIRA_807D3AF39F6C 2021-02-27T20:27:46 None 0 None 14.82 None 13.9 None 14.76 None 14.81 None 68.44 None 9.7 None 0.62 None
18311 2021-02-27T20:35:13 /envAirQualityRESPIRA3 RESPIRA RESPIRA:RESPIRA_246F28179F74 2021-02-27T20:35:12 None 31.7 None 15.55 None 5.3 None 10.65 None 14.73 None 42.98 None 22.71 None 0.87 None
18313 2021-02-27T20:50:58 /envAirQualityRESPIRA3 RESPIRA RESPIRA:RESPIRA_A4CF12755A8C 2021-02-27T20:50:58 None 32.03 None 4.82 None 4.55 None 4.82 None 4.82 None 60.79 None 19.14 None 0.54 None
18314 2021-02-27T20:51:04 /envAirQualityRESPIRA3 RESPIRA RESPIRA:RESPIRA_A4CF12752890 2021-02-27T20:51:04 None 76.85 None 23.29 None 22.03 None 23.29 None 23.29 None 64.59 None 15.16 None 0.58 None
18315 2021-02-27T20:51:41 /envAirQualityRESPIRA3 RESPIRA RESPIRA:RESPIRA_A4CF127501F8 2021-02-27T20:51:41 None 41.39 None 10.13 None 9.53 None 10.11 None 10.13 None 64.95 None 15.55 None 0.63 None
18301 2021-02-27T20:12:01 /envAirQualityRESPIRA3 RESPIRA RESPIRA:RESPIRA_A4CF1275559C 2021-02-27T20:12:01 None 80.61 None 18 None 16.88 None 17.92 None 17.98 None 91.54 None 11.07 None 0.69 None
18302 2021-02-27T20:13:02 /envAirQualityRESPIRA3 RESPIRA RESPIRA:RESPIRA_807D3AF35A5C 2021-02-27T20:13:02 None 0 None 9.18 None 8.68 None 9.18 None 9.18 None 84.86 None 13.75 None 0.59 None
18306 2021-02-27T20:21:44 /envAirQualityRESPIRA3 RESPIRA RESPIRA:RESPIRA_A4CF1275659C 2021-02-27T20:21:44 None 25.77 None 9.26 None 8.76 None 9.26 None 9.26 None 51.26 None 21.1 None 0.54 None
18307 2021-02-27T20:24:21 /envAirQualityRESPIRA3 RESPIRA RESPIRA:RESPIRA_30AEA4F1B87C 2021-02-27T20:24:20 None 179.45 None 12.95 None 12.22 None 12.94 None 12.94 None 92.15 None 13.14 None 0.58 None
18310 2021-02-27T20:34:34 /envAirQualityRESPIRA3 RESPIRA RESPIRA:RESPIRA_246F28179F74 2021-02-27T20:34:34 None 20.41 None 4.6 None 4.22 None 4.53 None 4.59 None 42.98 None 22.65 None 0.62 None
18312 2021-02-27T20:44:46 /envAirQualityRESPIRA3 RESPIRA RESPIRA:RESPIRA_30AEA4F1D164 2021-02-27T20:44:45 None 22.88 None 16.41 None 2.98 None 9.88 None 15.32 None 54.67 None 18.34 None 1.63 None
18317 2021-02-27T20:57:38 /envAirQualityRESPIRA3 RESPIRA RESPIRA:RESPIRA_A4CF12758438 2021-02-27T20:57:38 None 80.9 None 20.55 None 19.19 None 20.43 None 20.53 None 77.68 None 11.11 None 0.62 None
18319 2021-02-27T21:07:45 /envAirQualityRESPIRA3 RESPIRA RESPIRA:RESPIRA_807D3AF398EC 2021-02-27T21:07:45 None 205.12 None 10.8 None 10.19 None 10.78 None 10.79 None 99.99 None 12.52 None 0.55 None
18321 2021-02-27T21:08:58 /envAirQualityRESPIRA3 RESPIRA RESPIRA:RESPIRA_807D3AF39838 2021-02-27T21:08:58 None 0 None 14 None 13.13 None 13.94 None 13.99 None 89.96 None 13.03 None 0.57 None
18323 2021-02-27T21:11:23 /envAirQualityRESPIRA3 RESPIRA RESPIRA:RESPIRA_A4CF1272ACE4 2021-02-27T21:11:23 None 0 None 9.54 None 8.95 None 9.5 None 9.54 None 58.53 None 13.86 None 0.6 None
18324 2021-02-27T21:12:02 /envAirQualityRESPIRA3 RESPIRA RESPIRA:RESPIRA_A4CF1275559C 2021-02-27T21:12:01 None 74.97 None 18.32 None 17.19 None 18.25 None 18.31 None 102.25 None 9.42 None 0.67 None
18316 2021-02-27T20:56:09 /envAirQualityRESPIRA3 RESPIRA RESPIRA:RESPIRA_240AC4A3EBF8 2021-02-27T20:56:09 None 90.02 None 16.98 None 16.05 None 16.98 None 16.98 None 86.69 None 14.35 None 0.56 None
18318 2021-02-27T21:03:40 /envAirQualityRESPIRA3 RESPIRA RESPIRA:RESPIRA_A4CF12755848 2021-02-27T21:03:40 None 13.81 None 15.83 None 13.62 None 15.13 None 15.71 None 63.85 None 12.74 None 0.66 None
18320 2021-02-27T21:08:00 /envAirQualityRESPIRA3 RESPIRA RESPIRA:RESPIRA_A4CF12750498 2021-02-27T21:08:00 None 0 None 20.43 None 18.89 None 20.2 None 20.39 None 61.81 None 15.84 None 0.6 None
18322 2021-02-27T21:11:12 /envAirQualityRESPIRA3 RESPIRA RESPIRA:RESPIRA_807D3AF3AB0C 2021-02-27T21:11:12 None 0 None 28.58 None 26.83 None 28.48 None 28.56 None 89.57 None 13.2 None 0.59 None
18326 2021-02-27T21:17:19 /envAirQualityRESPIRA3 RESPIRA RESPIRA:RESPIRA_A4CF12755D90 2021-02-27T21:17:19 None 1222.93 None 22.12 None 20.87 None 22.09 None 22.11 None 70.17 None 14.09 None 0.58 None
18327 2021-02-27T21:17:55 /envAirQualityRESPIRA3 RESPIRA RESPIRA:RESPIRA_240AC4A26E00 2021-02-27T21:17:55 None 76.95 None 12.53 None 11.83 None 12.52 None 12.53 None 25.2 None 12.31 None 0.58 None
18329 2021-02-27T21:21:44 /envAirQualityRESPIRA3 RESPIRA RESPIRA:RESPIRA_A4CF1275659C 2021-02-27T21:21:44 None 25.77 None 7.89 None 7.46 None 7.89 None 7.89 None 50.69 None 21.3 None 0.57 None
18330 2021-02-27T21:24:21 /envAirQualityRESPIRA3 RESPIRA RESPIRA:RESPIRA_30AEA4F1B87C 2021-02-27T21:24:21 None 36.46 None 10.36 None 9.76 None 10.34 None 10.35 None 87.29 None 12.46 None 0.62 None
18332 2021-02-27T21:27:47 /envAirQualityRESPIRA3 RESPIRA RESPIRA:RESPIRA_807D3AF39F6C 2021-02-27T21:27:47 None 0 None 14.58 None 13.59 None 14.48 None 14.57 None 108.76 None 8.68 None 0.65 None
18335 2021-02-27T21:50:58 /envAirQualityRESPIRA3 RESPIRA RESPIRA:RESPIRA_A4CF12755A8C 2021-02-27T21:50:58 None 35.8 None 5.01 None 4.74 None 5.01 None 5.01 None 61.05 None 19.14 None 0.53 None
18336 2021-02-27T21:51:04 /envAirQualityRESPIRA3 RESPIRA RESPIRA:RESPIRA_A4CF12752890 2021-02-27T21:51:04 None 50.51 None 30.14 None 28.43 None 30.1 None 30.13 None 65.32 None 14.96 None 0.56 None
18325 2021-02-27T21:13:02 /envAirQualityRESPIRA3 RESPIRA RESPIRA:RESPIRA_807D3AF35A5C 2021-02-27T21:13:02 None 0 None 11.05 None 10.39 None 11.01 None 11.04 None 86.5 None 13.4 None 0.56 None
18328 2021-02-27T21:18:02 /envAirQualityRESPIRA3 RESPIRA RESPIRA:RESPIRA_A4CF1272B60C 2021-02-27T21:18:02 None 120.82 None 18.33 None 15.36 None 16.76 None 17.68 None 68.24 None 13.01 None 0.58 None
18331 2021-02-27T21:25:15 /envAirQualityRESPIRA3 RESPIRA RESPIRA:RESPIRA_807D3AF39910 2021-02-27T21:25:15 None 12.34 None 20.85 None 14.36 None 18.06 None 20.38 None 47.95 None 20.27 None 0.68 None
18333 2021-02-27T21:35:13 /envAirQualityRESPIRA3 RESPIRA RESPIRA:RESPIRA_246F28179F74 2021-02-27T21:35:13 None 22.29 None 4.6 None 4.17 None 4.51 None 4.58 None 42.94 None 22.66 None 0.66 None
18334 2021-02-27T21:50:37 /envAirQualityRESPIRA3 RESPIRA RESPIRA:RESPIRA_30AEA4F1D164 2021-02-27T21:50:36 None 7.83 None 1.47 None 1.39 None 1.47 None 1.47 None 53.58 None 18.39 None 0.49 None
18337 2021-02-27T21:51:41 /envAirQualityRESPIRA3 RESPIRA RESPIRA:RESPIRA_A4CF127501F8 2021-02-27T21:51:41 None 50.8 None 10.76 None 10.18 None 10.76 None 10.76 None 67.27 None 14.94 None 0.64 None
18338 2021-02-27T21:56:10 /envAirQualityRESPIRA3 RESPIRA RESPIRA:RESPIRA_240AC4A3EBF8 2021-02-27T21:56:09 None 122.01 None 18.47 None 17.37 None 18.46 None 18.47 None 93.04 None 13.87 None 0.59 None
18342 2021-02-27T22:08:01 /envAirQualityRESPIRA3 RESPIRA RESPIRA:RESPIRA_A4CF12750498 2021-02-27T22:08:00 None 0 None 20.73 None 19.44 None 20.64 None 20.71 None 68.19 None 14.7 None 0.61 None
18345 2021-02-27T22:11:23 /envAirQualityRESPIRA3 RESPIRA RESPIRA:RESPIRA_A4CF1272ACE4 2021-02-27T22:11:23 None 0 None 11.79 None 11.09 None 11.76 None 11.79 None 66.5 None 12.51 None 0.63 None
18347 2021-02-27T22:13:03 /envAirQualityRESPIRA3 RESPIRA RESPIRA:RESPIRA_807D3AF35A5C 2021-02-27T22:13:03 None 0 None 14.13 None 13.33 None 14.11 None 14.13 None 89.08 None 12.83 None 0.55 None
18349 2021-02-27T22:17:55 /envAirQualityRESPIRA3 RESPIRA RESPIRA:RESPIRA_240AC4A26E00 2021-02-27T22:17:55 None 73.19 None 12.23 None 11.54 None 12.22 None 12.23 None 24.35 None 11.92 None 0.6 None
18339 2021-02-27T21:57:38 /envAirQualityRESPIRA3 RESPIRA RESPIRA:RESPIRA_A4CF12758438 2021-02-27T21:57:38 None 77.14 None 17.75 None 16.43 None 17.57 None 17.72 None 79.71 None 10.11 None 0.69 None

Informações Adicionais

Campo Valor
Formato CSV
Licença Creative Commons Attribution
formatCSV
package id12391b15-471b-47e2-85fc-4ae3187173a7
revision idce93c750-3e20-4f4a-8ae0-66e391a217ba
stateactive